sensor_id;sensor_type;location;lat;lon;timestamp;temperature;humidity
3330;DHT22;1677;49.576;10.990;2023-05-01T00:00:03;10.60;99.90
3330;DHT22;1677;49.576;10.990;2023-05-01T00:02:29;10.50;99.90
3330;DHT22;1677;49.576;10.990;2023-05-01T00:04:56;10.60;99.90
3330;DHT22;1677;49.576;10.990;2023-05-01T00:07:22;10.60;99.90
3330;DHT22;1677;49.576;10.990;2023-05-01T00:09:50;10.70;99.90
3330;DHT22;1677;49.576;10.990;2023-05-01T00:12:15;10.60;99.90
3330;DHT22;1677;49.576;10.990;2023-05-01T00:14:41;10.50;99.90
3330;DHT22;1677;49.576;10.990;2023-05-01T00:17:07;10.40;99.90
3330;DHT22;1677;49.576;10.990;2023-05-01T00:19:32;10.30;99.90
3330;DHT22;1677;49.576;10.990;2023-05-01T00:21:58;10.40;99.90
3330;DHT22;1677;49.576;10.990;2023-05-01T00:24:23;10.40;99.90
3330;DHT22;1677;49.576;10.990;2023-05-01T00:26:49;10.30;99.90
3330;DHT22;1677;49.576;10.990;2023-05-01T00:29:14;10.20;99.90
3330;DHT22;1677;49.576;10.990;2023-05-01T00:31:41;10.30;99.90
3330;DHT22;1677;49.576;10.990;2023-05-01T00:34:07;10.30;99.90
3330;DHT22;1677;49.576;10.990;2023-05-01T00:36:33;10.30;99.90
3330;DHT22;1677;49.576;10.990;2023-05-01T00:38:58;10.40;99.90
3330;DHT22;1677;49.576;10.990;2023-05-01T00:41:24;10.20;99.90
3330;DHT22;1677;49.576;10.990;2023-05-01T00:43:50;10.10;99.90
3330;DHT22;1677;49.576;10.990;2023-05-01T00:46:15;10.20;99.90
3330;DHT22;1677;49.576;10.990;2023-05-01T00:48:42;10.10;99.90
3330;DHT22;1677;49.576;10.990;2023-05-01T00:51:09;10.10;99.90
3330;DHT22;1677;49.576;10.990;2023-05-01T00:53:35;10.20;99.90
3330;DHT22;1677;49.576;10.990;2023-05-01T00:56:01;10.30;99.90
3330;DHT22;1677;49.576;10.990;2023-05-01T00:58:28;10.40;99.90
3330;DHT22;1677;49.576;10.990;2023-05-01T01:00:54;10.40;99.90
3330;DHT22;1677;49.576;10.990;2023-05-01T01:03:20;10.40;99.90
3330;DHT22;1677;49.576;10.990;2023-05-01T01:05:56;10.40;99.90
3330;DHT22;1677;49.576;10.990;2023-05-01T01:12:07;10.40;99.90
3330;DHT22;1677;49.576;10.990;2023-05-01T01:14:47;10.40;99.90
3330;DHT22;1677;49.576;10.990;2023-05-01T01:22:39;10.60;99.90
3330;DHT22;1677;49.576;10.990;2023-05-01T01:31:19;10.70;99.90
3330;DHT22;1677;49.576;10.990;2023-05-01T01:34:08;10.50;99.90
3330;DHT22;1677;49.576;10.990;2023-05-01T01:37:07;10.50;99.90
3330;DHT22;1677;49.576;10.990;2023-05-01T01:39:53;10.60;99.50
3330;DHT22;1677;49.576;10.990;2023-05-01T01:42:26;10.60;99.20
3330;DHT22;1677;49.576;10.990;2023-05-01T01:45:00;10.60;99.00
3330;DHT22;1677;49.576;10.990;2023-05-01T01:47:30;10.50;99.10
3330;DHT22;1677;49.576;10.990;2023-05-01T01:50:00;10.50;99.10
3330;DHT22;1677;49.576;10.990;2023-05-01T01:52:29;10.50;98.80
3330;DHT22;1677;49.576;10.990;2023-05-01T01:55:05;10.40;99.30
3330;DHT22;1677;49.576;10.990;2023-05-01T01:57:35;10.60;98.70
3330;DHT22;1677;49.576;10.990;2023-05-01T02:00:02;10.80;98.40
3330;DHT22;1677;49.576;10.990;2023-05-01T02:02:34;10.70;98.80
3330;DHT22;1677;49.576;10.990;2023-05-01T02:05:02;10.80;98.30
3330;DHT22;1677;49.576;10.990;2023-05-01T02:07:29;10.90;98.00
3330;DHT22;1677;49.576;10.990;2023-05-01T02:09:58;11.00;97.30
3330;DHT22;1677;49.576;10.990;2023-05-01T02:12:26;10.90;97.80
3330;DHT22;1677;49.576;10.990;2023-05-01T02:14:52;10.80;97.70
3330;DHT22;1677;49.576;10.990;2023-05-01T02:17:19;10.70;97.40
3330;DHT22;1677;49.576;10.990;2023-05-01T02:19:45;10.60;98.40
3330;DHT22;1677;49.576;10.990;2023-05-01T02:22:12;10.60;98.70
3330;DHT22;1677;49.576;10.990;2023-05-01T02:24:41;10.60;98.60
3330;DHT22;1677;49.576;10.990;2023-05-01T02:27:24;10.60;98.20
3330;DHT22;1677;49.576;10.990;2023-05-01T02:29:51;10.60;97.80
3330;DHT22;1677;49.576;10.990;2023-05-01T02:32:17;10.50;97.80
3330;DHT22;1677;49.576;10.990;2023-05-01T02:34:44;10.40;98.80
3330;DHT22;1677;49.576;10.990;2023-05-01T02:37:10;10.40;98.60
3330;DHT22;1677;49.576;10.990;2023-05-01T02:39:37;10.30;98.90
3330;DHT22;1677;49.576;10.990;2023-05-01T02:42:04;10.40;99.20
3330;DHT22;1677;49.576;10.990;2023-05-01T02:44:39;10.30;99.20
3330;DHT22;1677;49.576;10.990;2023-05-01T02:47:08;10.40;98.50
3330;DHT22;1677;49.576;10.990;2023-05-01T02:49:35;10.30;98.70
3330;DHT22;1677;49.576;10.990;2023-05-01T02:52:02;10.20;99.30
3330;DHT22;1677;49.576;10.990;2023-05-01T02:54:29;10.10;99.50
3330;DHT22;1677;49.576;10.990;2023-05-01T02:56:55;10.10;99.30
3330;DHT22;1677;49.576;10.990;2023-05-01T02:59:24;10.30;99.10
3330;DHT22;1677;49.576;10.990;2023-05-01T03:01:49;10.10;99.30
3330;DHT22;1677;49.576;10.990;2023-05-01T03:04:16;10.10;99.70
3330;DHT22;1677;49.576;10.990;2023-05-01T03:06:41;10.40;98.50
3330;DHT22;1677;49.576;10.990;2023-05-01T03:09:08;10.40;98.20
3330;DHT22;1677;49.576;10.990;2023-05-01T03:11:34;10.30;98.00
3330;DHT22;1677;49.576;10.990;2023-05-01T03:14:00;10.30;98.20
3330;DHT22;1677;49.576;10.990;2023-05-01T03:16:25;10.20;98.80
3330;DHT22;1677;49.576;10.990;2023-05-01T03:18:51;10.00;99.30
3330;DHT22;1677;49.576;10.990;2023-05-01T03:21:16;9.90;99.90
3330;DHT22;1677;49.576;10.990;2023-05-01T03:23:42;9.90;99.90
3330;DHT22;1677;49.576;10.990;2023-05-01T03:26:07;9.70;99.90
3330;DHT22;1677;49.576;10.990;2023-05-01T03:28:33;9.60;99.90
3330;DHT22;1677;49.576;10.990;2023-05-01T03:30:59;9.70;99.90
3330;DHT22;1677;49.576;10.990;2023-05-01T03:33:24;9.70;99.90
3330;DHT22;1677;49.576;10.990;2023-05-01T03:35:59;9.60;99.90
3330;DHT22;1677;49.576;10.990;2023-05-01T03:38:25;9.70;99.90
3330;DHT22;1677;49.576;10.990;2023-05-01T03:40:51;9.80;99.90
3330;DHT22;1677;49.576;10.990;2023-05-01T03:43:17;10.00;98.60
3330;DHT22;1677;49.576;10.990;2023-05-01T03:45:42;9.80;99.70
3330;DHT22;1677;49.576;10.990;2023-05-01T03:48:08;9.70;99.90
3330;DHT22;1677;49.576;10.990;2023-05-01T03:50:33;9.70;99.90
3330;DHT22;1677;49.576;10.990;2023-05-01T03:52:59;9.90;99.20
3330;DHT22;1677;49.576;10.990;2023-05-01T03:55:24;9.90;99.90
3330;DHT22;1677;49.576;10.990;2023-05-01T03:57:50;9.80;99.00
3330;DHT22;1677;49.576;10.990;2023-05-01T04:00:17;9.90;99.70
3330;DHT22;1677;49.576;10.990;2023-05-01T04:02:42;10.00;99.20
3330;DHT22;1677;49.576;10.990;2023-05-01T04:05:08;9.80;99.80
3330;DHT22;1677;49.576;10.990;2023-05-01T04:07:34;9.70;99.90
3330;DHT22;1677;49.576;10.990;2023-05-01T04:09:59;9.80;99.90
3330;DHT22;1677;49.576;10.990;2023-05-01T04:12:25;9.70;99.90
3330;DHT22;1677;49.576;10.990;2023-05-01T04:14:50;9.80;99.90
3330;DHT22;1677;49.576;10.990;2023-05-01T04:17:16;10.00;98.70
3330;DHT22;1677;49.576;10.990;2023-05-01T04:19:41;9.90;99.20
3330;DHT22;1677;49.576;10.990;2023-05-01T04:22:07;9.80;98.60
3330;DHT22;1677;49.576;10.990;2023-05-01T04:24:33;9.70;99.20
3330;DHT22;1677;49.576;10.990;2023-05-01T04:26:58;9.70;99.90
3330;DHT22;1677;49.576;10.990;2023-05-01T04:29:24;9.70;99.90
3330;DHT22;1677;49.576;10.990;2023-05-01T04:31:49;9.80;99.80
3330;DHT22;1677;49.576;10.990;2023-05-01T04:34:15;9.70;99.90
3330;DHT22;1677;49.576;10.990;2023-05-01T04:36:41;9.70;99.90
3330;DHT22;1677;49.576;10.990;2023-05-01T04:39:07;9.70;99.90
3330;DHT22;1677;49.576;10.990;2023-05-01T04:41:32;10.00;98.40
3330;DHT22;1677;49.576;10.990;2023-05-01T04:43:58;9.90;99.90
3330;DHT22;1677;49.576;10.990;2023-05-01T04:46:23;9.80;99.90
3330;DHT22;1677;49.576;10.990;2023-05-01T04:48:49;9.80;99.90
3330;DHT22;1677;49.576;10.990;2023-05-01T04:51:15;10.00;99.80
3330;DHT22;1677;49.576;10.990;2023-05-01T04:53:41;10.00;99.60
3330;DHT22;1677;49.576;10.990;2023-05-01T04:56:06;10.10;99.60
3330;DHT22;1677;49.576;10.990;2023-05-01T04:58:32;10.10;99.90
3330;DHT22;1677;49.576;10.990;2023-05-01T05:00:57;10.30;99.70
3330;DHT22;1677;49.576;10.990;2023-05-01T05:03:23;10.60;98.90
3330;DHT22;1677;49.576;10.990;2023-05-01T05:05:48;10.60;97.80
3330;DHT22;1677;49.576;10.990;2023-05-01T05:08:14;10.50;99.70
3330;DHT22;1677;49.576;10.990;2023-05-01T05:10:39;10.60;98.90
3330;DHT22;1677;49.576;10.990;2023-05-01T05:13:05;10.80;97.80
3330;DHT22;1677;49.576;10.990;2023-05-01T05:15:31;11.00;98.00
3330;DHT22;1677;49.576;10.990;2023-05-01T05:17:56;11.10;97.40
3330;DHT22;1677;49.576;10.990;2023-05-01T05:20:22;11.30;97.00
3330;DHT22;1677;49.576;10.990;2023-05-01T05:22:47;11.20;96.70
3330;DHT22;1677;49.576;10.990;2023-05-01T05:25:13;11.30;97.00
3330;DHT22;1677;49.576;10.990;2023-05-01T05:27:38;11.40;95.20
3330;DHT22;1677;49.576;10.990;2023-05-01T05:30:04;11.40;96.80
3330;DHT22;1677;49.576;10.990;2023-05-01T05:32:30;11.50;96.20
3330;DHT22;1677;49.576;10.990;2023-05-01T05:34:56;11.50;96.00
3330;DHT22;1677;49.576;10.990;2023-05-01T05:37:22;11.60;95.20
3330;DHT22;1677;49.576;10.990;2023-05-01T05:39:50;11.70;94.70
3330;DHT22;1677;49.576;10.990;2023-05-01T05:42:15;11.70;93.80
3330;DHT22;1677;49.576;10.990;2023-05-01T05:44:41;11.60;95.20
3330;DHT22;1677;49.576;10.990;2023-05-01T05:47:06;11.60;94.60
3330;DHT22;1677;49.576;10.990;2023-05-01T05:49:32;11.80;94.30
3330;DHT22;1677;49.576;10.990;2023-05-01T05:51:58;12.10;93.50
3330;DHT22;1677;49.576;10.990;2023-05-01T05:54:23;12.20;93.60
3330;DHT22;1677;49.576;10.990;2023-05-01T05:56:49;12.40;93.90
3330;DHT22;1677;49.576;10.990;2023-05-01T05:59:14;12.50;92.80
3330;DHT22;1677;49.576;10.990;2023-05-01T06:01:40;12.50;92.80
3330;DHT22;1677;49.576;10.990;2023-05-01T06:04:07;12.60;92.40
3330;DHT22;1677;49.576;10.990;2023-05-01T06:06:33;12.70;91.90
3330;DHT22;1677;49.576;10.990;2023-05-01T06:08:58;12.80;92.70
3330;DHT22;1677;49.576;10.990;2023-05-01T06:11:25;12.80;92.90
3330;DHT22;1677;49.576;10.990;2023-05-01T06:13:52;12.70;92.60
3330;DHT22;1677;49.576;10.990;2023-05-01T06:16:17;12.60;93.20
3330;DHT22;1677;49.576;10.990;2023-05-01T06:18:43;12.50;92.50
3330;DHT22;1677;49.576;10.990;2023-05-01T06:21:09;12.50;93.00
3330;DHT22;1677;49.576;10.990;2023-05-01T06:23:34;12.70;92.90
3330;DHT22;1677;49.576;10.990;2023-05-01T06:26:00;13.00;94.10
3330;DHT22;1677;49.576;10.990;2023-05-01T06:28:25;13.10;92.40
3330;DHT22;1677;49.576;10.990;2023-05-01T06:30:51;13.20;92.20
3330;DHT22;1677;49.576;10.990;2023-05-01T06:33:17;13.20;91.60
3330;DHT22;1677;49.576;10.990;2023-05-01T06:35:42;13.20;92.70
3330;DHT22;1677;49.576;10.990;2023-05-01T06:38:08;13.20;93.00
3330;DHT22;1677;49.576;10.990;2023-05-01T06:40:33;13.30;91.70
3330;DHT22;1677;49.576;10.990;2023-05-01T06:43:02;13.40;91.70
3330;DHT22;1677;49.576;10.990;2023-05-01T06:45:28;13.60;92.40
3330;DHT22;1677;49.576;10.990;2023-05-01T06:47:54;13.80;92.10
3330;DHT22;1677;49.576;10.990;2023-05-01T06:50:20;13.90;91.60
3330;DHT22;1677;49.576;10.990;2023-05-01T06:52:45;14.00;91.80
3330;DHT22;1677;49.576;10.990;2023-05-01T06:55:11;14.30;91.90
3330;DHT22;1677;49.576;10.990;2023-05-01T06:57:37;14.60;92.20
3330;DHT22;1677;49.576;10.990;2023-05-01T07:00:04;14.60;91.40
3330;DHT22;1677;49.576;10.990;2023-05-01T07:02:30;14.60;90.50
3330;DHT22;1677;49.576;10.990;2023-05-01T07:04:56;14.60;90.40
3330;DHT22;1677;49.576;10.990;2023-05-01T07:07:21;14.50;90.10
3330;DHT22;1677;49.576;10.990;2023-05-01T07:09:47;14.40;90.00
3330;DHT22;1677;49.576;10.990;2023-05-01T07:12:13;14.40;90.70
3330;DHT22;1677;49.576;10.990;2023-05-01T07:14:38;14.40;91.20
3330;DHT22;1677;49.576;10.990;2023-05-01T07:17:05;14.50;91.20
3330;DHT22;1677;49.576;10.990;2023-05-01T07:19:31;14.50;90.30
3330;DHT22;1677;49.576;10.990;2023-05-01T07:21:57;14.80;91.40
3330;DHT22;1677;49.576;10.990;2023-05-01T07:24:22;15.40;90.70
3330;DHT22;1677;49.576;10.990;2023-05-01T07:26:48;16.00;87.30
3330;DHT22;1677;49.576;10.990;2023-05-01T07:29:15;16.60;85.10
3330;DHT22;1677;49.576;10.990;2023-05-01T07:31:41;17.20;82.90
3330;DHT22;1677;49.576;10.990;2023-05-01T07:34:06;17.40;78.10
3330;DHT22;1677;49.576;10.990;2023-05-01T07:36:32;17.40;79.10
3330;DHT22;1677;49.576;10.990;2023-05-01T07:38:58;17.40;79.20
3330;DHT22;1677;49.576;10.990;2023-05-01T07:41:23;17.60;78.50
3330;DHT22;1677;49.576;10.990;2023-05-01T07:43:49;17.60;77.10
3330;DHT22;1677;49.576;10.990;2023-05-01T07:46:15;17.30;77.70
3330;DHT22;1677;49.576;10.990;2023-05-01T07:48:41;17.50;76.30
3330;DHT22;1677;49.576;10.990;2023-05-01T07:51:07;18.20;76.70
3330;DHT22;1677;49.576;10.990;2023-05-01T07:53:33;18.60;73.80
3330;DHT22;1677;49.576;10.990;2023-05-01T07:56:08;19.00;71.30
3330;DHT22;1677;49.576;10.990;2023-05-01T07:58:35;19.20;71.30
3330;DHT22;1677;49.576;10.990;2023-05-01T08:01:01;19.60;69.70
3330;DHT22;1677;49.576;10.990;2023-05-01T08:03:28;19.80;68.40
3330;DHT22;1677;49.576;10.990;2023-05-01T08:05:54;19.80;64.40
3330;DHT22;1677;49.576;10.990;2023-05-01T08:08:20;19.80;64.90
3330;DHT22;1677;49.576;10.990;2023-05-01T08:10:46;20.20;66.70
3330;DHT22;1677;49.576;10.990;2023-05-01T08:13:12;20.20;63.70
3330;DHT22;1677;49.576;10.990;2023-05-01T08:15:37;19.70;62.30
3330;DHT22;1677;49.576;10.990;2023-05-01T08:18:04;19.60;65.20
3330;DHT22;1677;49.576;10.990;2023-05-01T08:20:29;20.00;65.80
3330;DHT22;1677;49.576;10.990;2023-05-01T08:22:55;20.30;60.30
3330;DHT22;1677;49.576;10.990;2023-05-01T08:25:21;20.70;59.30
3330;DHT22;1677;49.576;10.990;2023-05-01T08:27:47;20.80;55.80
3330;DHT22;1677;49.576;10.990;2023-05-01T08:30:13;21.10;55.50
3330;DHT22;1677;49.576;10.990;2023-05-01T08:32:39;20.80;55.40
3330;DHT22;1677;49.576;10.990;2023-05-01T08:35:04;20.30;53.90
3330;DHT22;1677;49.576;10.990;2023-05-01T08:37:30;19.60;54.40
3330;DHT22;1677;49.576;10.990;2023-05-01T08:39:56;18.60;55.40
3330;DHT22;1677;49.576;10.990;2023-05-01T08:42:21;18.50;57.60
3330;DHT22;1677;49.576;10.990;2023-05-01T08:44:48;18.60;56.00
3330;DHT22;1677;49.576;10.990;2023-05-01T08:47:16;18.70;57.60
3330;DHT22;1677;49.576;10.990;2023-05-01T08:49:43;19.30;56.30
3330;DHT22;1677;49.576;10.990;2023-05-01T08:52:13;20.10;58.30
3330;DHT22;1677;49.576;10.990;2023-05-01T08:54:42;20.40;58.80
3330;DHT22;1677;49.576;10.990;2023-05-01T08:57:09;20.20;54.40
3330;DHT22;1677;49.576;10.990;2023-05-01T08:59:36;19.50;56.30
3330;DHT22;1677;49.576;10.990;2023-05-01T09:02:03;19.50;56.40
3330;DHT22;1677;49.576;10.990;2023-05-01T09:04:37;19.80;59.70
3330;DHT22;1677;49.576;10.990;2023-05-01T09:07:03;19.90;57.00
3330;DHT22;1677;49.576;10.990;2023-05-01T09:09:29;19.60;54.10
3330;DHT22;1677;49.576;10.990;2023-05-01T09:11:59;19.30;55.10
3330;DHT22;1677;49.576;10.990;2023-05-01T09:14:25;19.20;56.00
3330;DHT22;1677;49.576;10.990;2023-05-01T09:16:51;19.00;58.60
3330;DHT22;1677;49.576;10.990;2023-05-01T09:19:18;18.50;55.70
3330;DHT22;1677;49.576;10.990;2023-05-01T09:21:43;18.10;57.00
3330;DHT22;1677;49.576;10.990;2023-05-01T09:24:09;17.90;56.50
3330;DHT22;1677;49.576;10.990;2023-05-01T09:26:38;17.60;57.10
3330;DHT22;1677;49.576;10.990;2023-05-01T09:29:06;17.30;57.60
3330;DHT22;1677;49.576;10.990;2023-05-01T09:31:32;17.00;57.80
3330;DHT22;1677;49.576;10.990;2023-05-01T09:34:04;16.70;58.10
3330;DHT22;1677;49.576;10.990;2023-05-01T09:36:32;17.00;58.50
3330;DHT22;1677;49.576;10.990;2023-05-01T09:38:59;17.10;62.10
3330;DHT22;1677;49.576;10.990;2023-05-01T09:41:26;17.30;59.20
3330;DHT22;1677;49.576;10.990;2023-05-01T09:43:58;17.40;59.10
3330;DHT22;1677;49.576;10.990;2023-05-01T09:46:25;17.50;58.60
3330;DHT22;1677;49.576;10.990;2023-05-01T09:48:58;17.40;59.50
3330;DHT22;1677;49.576;10.990;2023-05-01T09:51:32;17.20;60.20
3330;DHT22;1677;49.576;10.990;2023-05-01T09:53:59;17.00;60.60
3330;DHT22;1677;49.576;10.990;2023-05-01T09:56:31;16.90;60.50
3330;DHT22;1677;49.576;10.990;2023-05-01T10:01:41;17.10;61.60
3330;DHT22;1677;49.576;10.990;2023-05-01T10:04:07;17.30;59.40
3330;DHT22;1677;49.576;10.990;2023-05-01T10:06:34;17.40;62.80
3330;DHT22;1677;49.576;10.990;2023-05-01T10:09:01;17.70;61.70
3330;DHT22;1677;49.576;10.990;2023-05-01T10:11:27;17.80;63.50
3330;DHT22;1677;49.576;10.990;2023-05-01T10:14:06;17.90;60.60
3330;DHT22;1677;49.576;10.990;2023-05-01T10:16:34;17.20;60.00
3330;DHT22;1677;49.576;10.990;2023-05-01T10:19:00;17.20;62.50
3330;DHT22;1677;49.576;10.990;2023-05-01T10:21:26;17.20;63.10
3330;DHT22;1677;49.576;10.990;2023-05-01T10:23:53;17.30;62.60
3330;DHT22;1677;49.576;10.990;2023-05-01T10:26:19;17.20;64.10
3330;DHT22;1677;49.576;10.990;2023-05-01T10:28:47;17.10;63.10
3330;DHT22;1677;49.576;10.990;2023-05-01T10:31:14;17.00;61.80
3330;DHT22;1677;49.576;10.990;2023-05-01T10:33:41;16.80;63.10
3330;DHT22;1677;49.576;10.990;2023-05-01T10:36:10;16.90;65.80
3330;DHT22;1677;49.576;10.990;2023-05-01T10:38:37;16.60;69.00
3330;DHT22;1677;49.576;10.990;2023-05-01T10:41:03;16.30;74.00
3330;DHT22;1677;49.576;10.990;2023-05-01T10:43:30;16.10;78.50
3330;DHT22;1677;49.576;10.990;2023-05-01T10:51:16;15.90;90.40
3330;DHT22;1677;49.576;10.990;2023-05-01T10:53:45;15.60;91.20
3330;DHT22;1677;49.576;10.990;2023-05-01T10:58:53;14.30;99.90
3330;DHT22;1677;49.576;10.990;2023-05-01T11:04:47;13.60;99.90
3330;DHT22;1677;49.576;10.990;2023-05-01T11:09:40;13.30;99.90
3330;DHT22;1677;49.576;10.990;2023-05-01T11:12:08;13.20;99.90
3330;DHT22;1677;49.576;10.990;2023-05-01T11:20:50;13.50;99.90
3330;DHT22;1677;49.576;10.990;2023-05-01T11:22:57;13.70;99.90
3330;DHT22;1677;49.576;10.990;2023-05-01T11:25:29;13.50;99.90
3330;DHT22;1677;49.576;10.990;2023-05-01T11:28:00;13.40;99.90
3330;DHT22;1677;49.576;10.990;2023-05-01T11:30:35;13.30;99.90
3330;DHT22;1677;49.576;10.990;2023-05-01T11:33:02;13.40;99.90
3330;DHT22;1677;49.576;10.990;2023-05-01T11:35:28;13.50;99.90
3330;DHT22;1677;49.576;10.990;2023-05-01T11:37:54;13.60;99.90
3330;DHT22;1677;49.576;10.990;2023-05-01T11:40:28;13.70;99.90
3330;DHT22;1677;49.576;10.990;2023-05-01T11:43:00;13.80;99.90
3330;DHT22;1677;49.576;10.990;2023-05-01T11:45:26;13.90;99.90
3330;DHT22;1677;49.576;10.990;2023-05-01T11:47:52;14.10;99.90
3330;DHT22;1677;49.576;10.990;2023-05-01T11:50:18;14.20;99.90
3330;DHT22;1677;49.576;10.990;2023-05-01T11:52:48;14.20;99.90
3330;DHT22;1677;49.576;10.990;2023-05-01T11:55:15;14.20;99.90
3330;DHT22;1677;49.576;10.990;2023-05-01T11:57:51;14.20;99.90
3330;DHT22;1677;49.576;10.990;2023-05-01T12:00:38;14.10;99.90
3330;DHT22;1677;49.576;10.990;2023-05-01T12:03:11;14.20;99.90
3330;DHT22;1677;49.576;10.990;2023-05-01T12:05:38;14.10;99.90
3330;DHT22;1677;49.576;10.990;2023-05-01T12:10:32;14.10;99.90
3330;DHT22;1677;49.576;10.990;2023-05-01T12:12:57;14.00;99.90
3330;DHT22;1677;49.576;10.990;2023-05-01T12:15:23;13.90;99.90
3330;DHT22;1677;49.576;10.990;2023-05-01T12:17:49;13.80;99.90
3330;DHT22;1677;49.576;10.990;2023-05-01T12:20:15;13.70;99.90
3330;DHT22;1677;49.576;10.990;2023-05-01T12:22:50;13.70;99.90
3330;DHT22;1677;49.576;10.990;2023-05-01T12:25:16;13.80;99.90
3330;DHT22;1677;49.576;10.990;2023-05-01T12:27:44;14.00;99.90
3330;DHT22;1677;49.576;10.990;2023-05-01T12:30:10;14.10;99.90
3330;DHT22;1677;49.576;10.990;2023-05-01T12:32:36;14.10;99.90
3330;DHT22;1677;49.576;10.990;2023-05-01T12:35:13;14.20;99.90
3330;DHT22;1677;49.576;10.990;2023-05-01T12:37:39;14.20;99.90
3330;DHT22;1677;49.576;10.990;2023-05-01T12:40:14;14.40;99.90
3330;DHT22;1677;49.576;10.990;2023-05-01T12:42:40;14.50;99.90
3330;DHT22;1677;49.576;10.990;2023-05-01T12:45:07;14.60;99.90
3330;DHT22;1677;49.576;10.990;2023-05-01T12:47:37;14.70;99.90
3330;DHT22;1677;49.576;10.990;2023-05-01T12:50:03;14.60;99.90
3330;DHT22;1677;49.576;10.990;2023-05-01T12:52:29;14.60;99.90
3330;DHT22;1677;49.576;10.990;2023-05-01T12:55:05;14.50;99.90
3330;DHT22;1677;49.576;10.990;2023-05-01T12:57:31;14.60;99.90
3330;DHT22;1677;49.576;10.990;2023-05-01T12:59:59;14.70;99.90
3330;DHT22;1677;49.576;10.990;2023-05-01T13:02:31;14.70;99.90
3330;DHT22;1677;49.576;10.990;2023-05-01T13:05:08;14.70;99.90
3330;DHT22;1677;49.576;10.990;2023-05-01T13:07:35;14.50;99.90
3330;DHT22;1677;49.576;10.990;2023-05-01T13:10:01;14.50;99.90
3330;DHT22;1677;49.576;10.990;2023-05-01T13:12:29;14.50;99.90
3330;DHT22;1677;49.576;10.990;2023-05-01T13:14:55;14.50;99.90
3330;DHT22;1677;49.576;10.990;2023-05-01T13:17:26;14.50;99.90
3330;DHT22;1677;49.576;10.990;2023-05-01T13:19:53;14.60;99.90
3330;DHT22;1677;49.576;10.990;2023-05-01T13:22:28;14.70;99.90
3330;DHT22;1677;49.576;10.990;2023-05-01T13:24:54;14.70;99.90
3330;DHT22;1677;49.576;10.990;2023-05-01T13:27:20;14.60;99.90
3330;DHT22;1677;49.576;10.990;2023-05-01T13:29:57;14.50;99.90
3330;DHT22;1677;49.576;10.990;2023-05-01T13:32:24;14.30;99.90
3330;DHT22;1677;49.576;10.990;2023-05-01T13:34:50;14.40;99.90
3330;DHT22;1677;49.576;10.990;2023-05-01T13:37:16;14.20;99.90
3330;DHT22;1677;49.576;10.990;2023-05-01T13:39:43;14.10;99.90
3330;DHT22;1677;49.576;10.990;2023-05-01T13:42:23;14.00;99.90
3330;DHT22;1677;49.576;10.990;2023-05-01T13:44:55;14.00;99.90
3330;DHT22;1677;49.576;10.990;2023-05-01T13:47:24;14.10;99.90
3330;DHT22;1677;49.576;10.990;2023-05-01T13:49:53;14.10;99.90
3330;DHT22;1677;49.576;10.990;2023-05-01T13:52:19;14.10;99.90
3330;DHT22;1677;49.576;10.990;2023-05-01T13:54:46;14.10;99.90
3330;DHT22;1677;49.576;10.990;2023-05-01T13:57:12;14.20;99.90
3330;DHT22;1677;49.576;10.990;2023-05-01T13:59:42;14.30;99.90
3330;DHT22;1677;49.576;10.990;2023-05-01T14:02:18;14.60;99.90
3330;DHT22;1677;49.576;10.990;2023-05-01T14:04:49;14.90;99.90
3330;DHT22;1677;49.576;10.990;2023-05-01T14:07:23;15.10;99.90
3330;DHT22;1677;49.576;10.990;2023-05-01T14:09:53;15.20;99.90
3330;DHT22;1677;49.576;10.990;2023-05-01T14:12:23;15.10;99.90
3330;DHT22;1677;49.576;10.990;2023-05-01T14:14:50;14.90;99.90
3330;DHT22;1677;49.576;10.990;2023-05-01T14:17:17;14.90;99.90
3330;DHT22;1677;49.576;10.990;2023-05-01T14:19:43;14.90;99.90
3330;DHT22;1677;49.576;10.990;2023-05-01T14:22:08;14.90;99.90
3330;DHT22;1677;49.576;10.990;2023-05-01T14:24:36;14.90;99.90
3330;DHT22;1677;49.576;10.990;2023-05-01T14:27:06;14.70;99.90
3330;DHT22;1677;49.576;10.990;2023-05-01T14:29:34;14.70;99.90
3330;DHT22;1677;49.576;10.990;2023-05-01T14:32:03;14.70;99.90
3330;DHT22;1677;49.576;10.990;2023-05-01T14:34:30;14.50;99.90
3330;DHT22;1677;49.576;10.990;2023-05-01T14:36:56;14.40;99.90
3330;DHT22;1677;49.576;10.990;2023-05-01T14:39:23;14.30;99.90
3330;DHT22;1677;49.576;10.990;2023-05-01T14:41:49;14.30;99.90
3330;DHT22;1677;49.576;10.990;2023-05-01T14:44:17;14.40;99.90
3330;DHT22;1677;49.576;10.990;2023-05-01T14:46:46;14.40;99.90
3330;DHT22;1677;49.576;10.990;2023-05-01T14:49:17;14.30;99.90
3330;DHT22;1677;49.576;10.990;2023-05-01T14:51:43;14.40;99.90
3330;DHT22;1677;49.576;10.990;2023-05-01T14:54:09;14.50;99.90
3330;DHT22;1677;49.576;10.990;2023-05-01T14:56:36;14.50;99.90
3330;DHT22;1677;49.576;10.990;2023-05-01T14:59:01;14.80;99.90
3330;DHT22;1677;49.576;10.990;2023-05-01T15:01:28;14.80;99.90
3330;DHT22;1677;49.576;10.990;2023-05-01T15:03:53;14.80;99.90
3330;DHT22;1677;49.576;10.990;2023-05-01T15:06:19;14.80;99.90
3330;DHT22;1677;49.576;10.990;2023-05-01T15:08:45;14.80;99.90
3330;DHT22;1677;49.576;10.990;2023-05-01T15:11:14;14.70;99.90
3330;DHT22;1677;49.576;10.990;2023-05-01T15:13:39;14.60;99.90
3330;DHT22;1677;49.576;10.990;2023-05-01T15:16:06;14.50;99.90
3330;DHT22;1677;49.576;10.990;2023-05-01T15:18:32;14.40;99.90
3330;DHT22;1677;49.576;10.990;2023-05-01T15:20:59;14.40;99.90
3330;DHT22;1677;49.576;10.990;2023-05-01T15:23:25;14.50;99.90
3330;DHT22;1677;49.576;10.990;2023-05-01T15:25:51;14.50;99.90
3330;DHT22;1677;49.576;10.990;2023-05-01T15:28:17;14.40;99.90
3330;DHT22;1677;49.576;10.990;2023-05-01T15:30:44;14.30;99.90
3330;DHT22;1677;49.576;10.990;2023-05-01T15:33:11;14.40;99.90
3330;DHT22;1677;49.576;10.990;2023-05-01T15:35:36;14.50;99.90
3330;DHT22;1677;49.576;10.990;2023-05-01T15:38:02;14.70;99.90
3330;DHT22;1677;49.576;10.990;2023-05-01T15:40:28;15.00;99.90
3330;DHT22;1677;49.576;10.990;2023-05-01T15:42:54;15.20;99.90
3330;DHT22;1677;49.576;10.990;2023-05-01T15:45:20;15.40;99.90
3330;DHT22;1677;49.576;10.990;2023-05-01T15:47:46;15.60;99.90
3330;DHT22;1677;49.576;10.990;2023-05-01T15:50:11;15.80;99.90
3330;DHT22;1677;49.576;10.990;2023-05-01T15:52:37;15.70;99.90
3330;DHT22;1677;49.576;10.990;2023-05-01T15:55:03;15.70;99.90
3330;DHT22;1677;49.576;10.990;2023-05-01T15:57:30;15.70;99.90
3330;DHT22;1677;49.576;10.990;2023-05-01T15:59:57;15.70;99.90
3330;DHT22;1677;49.576;10.990;2023-05-01T16:02:23;15.70;99.90
3330;DHT22;1677;49.576;10.990;2023-05-01T16:04:51;15.70;99.90
3330;DHT22;1677;49.576;10.990;2023-05-01T16:07:18;15.60;99.90
3330;DHT22;1677;49.576;10.990;2023-05-01T16:09:46;15.60;99.90
3330;DHT22;1677;49.576;10.990;2023-05-01T16:12:11;15.30;99.90
3330;DHT22;1677;49.576;10.990;2023-05-01T16:14:40;15.30;99.90
3330;DHT22;1677;49.576;10.990;2023-05-01T16:17:06;15.20;99.90
3330;DHT22;1677;49.576;10.990;2023-05-01T16:19:32;15.10;99.90
3330;DHT22;1677;49.576;10.990;2023-05-01T16:22:00;15.10;99.90
3330;DHT22;1677;49.576;10.990;2023-05-01T16:24:27;15.10;99.90
3330;DHT22;1677;49.576;10.990;2023-05-01T16:26:55;14.90;99.90